createdAt,value
2023-04-17T00:01:47.787Z,102040.31
2023-04-17T00:04:18.436Z,102042.06
2023-04-17T00:06:46.693Z,102039.38
2023-04-17T00:09:14.895Z,102038.19
2023-04-17T00:11:43.017Z,102032.81
2023-04-17T00:14:11.221Z,102042.09
2023-04-17T00:16:39.415Z,102038.78
2023-04-17T00:19:07.626Z,102029.09
2023-04-17T00:21:37.118Z,102037.91
2023-04-17T00:24:05.554Z,102027.00
2023-04-17T00:26:34.607Z,102037.16
2023-04-17T00:29:02.974Z,102037.53
2023-04-17T00:31:31.139Z,102035.38
2023-04-17T00:34:01.446Z,102026.69
2023-04-17T00:36:31.865Z,102033.06
2023-04-17T00:39:01.506Z,102040.66
2023-04-17T00:41:29.694Z,102038.53
2023-04-17T00:43:57.873Z,102033.06
2023-04-17T00:46:26.143Z,102034.72
2023-04-17T00:48:54.393Z,102034.97
2023-04-17T00:51:22.816Z,102027.47
2023-04-17T00:53:51.345Z,102027.44
2023-04-17T00:56:21.250Z,102026.00
2023-04-17T00:58:50.014Z,102028.84
2023-04-17T01:01:18.933Z,102029.84
2023-04-17T01:03:47.546Z,102022.41
2023-04-17T01:06:15.998Z,102023.88
2023-04-17T01:08:45.343Z,102030.00
2023-04-17T01:11:13.583Z,102032.13
2023-04-17T01:13:50.194Z,102022.38
2023-04-17T01:16:19.244Z,102024.34
2023-04-17T01:18:48.352Z,102025.78
2023-04-17T01:21:17.110Z,102026.88
2023-04-17T01:23:48.665Z,102030.34
2023-04-17T01:26:21.140Z,102032.91
2023-04-17T01:28:53.724Z,102023.16
2023-04-17T01:31:22.290Z,102029.44
2023-04-17T01:33:51.374Z,102034.03
2023-04-17T01:36:20.198Z,102032.16
2023-04-17T01:38:48.391Z,102033.56
2023-04-17T01:41:18.026Z,102023.97
2023-04-17T01:43:48.507Z,102028.50
2023-04-17T01:46:16.717Z,102038.78
2023-04-17T01:48:44.932Z,102032.03
2023-04-17T01:51:13.168Z,102027.84
2023-04-17T01:53:41.521Z,102033.47
2023-04-17T01:56:09.725Z,102032.94
2023-04-17T01:58:39.238Z,102038.41
2023-04-17T02:01:07.647Z,102038.09
2023-04-17T02:03:36.029Z,102032.03
2023-04-17T02:06:04.503Z,102036.50
2023-04-17T02:08:32.668Z,102037.78
2023-04-17T02:11:00.803Z,102036.00
2023-04-17T02:13:29.380Z,102038.03
2023-04-17T02:15:59.008Z,102033.91
2023-04-17T02:18:27.546Z,102032.28
2023-04-17T02:20:55.730Z,102036.22
2023-04-17T02:23:23.899Z,102034.31
2023-04-17T02:25:52.063Z,102028.91
2023-04-17T02:28:20.271Z,102033.03
2023-04-17T02:30:48.480Z,102037.00
2023-04-17T02:33:18.069Z,102038.63
2023-04-17T02:35:46.653Z,102042.59
2023-04-17T02:38:14.959Z,102043.31
2023-04-17T02:40:43.134Z,102041.66
2023-04-17T02:43:13.229Z,102040.41
2023-04-17T02:45:41.482Z,102043.78
2023-04-17T02:48:09.939Z,102043.25
2023-04-17T02:50:39.476Z,102045.38
2023-04-17T02:53:07.655Z,102044.75
2023-04-17T02:55:36.231Z,102041.28
2023-04-17T02:58:04.487Z,102046.44
2023-04-17T03:00:33.077Z,102045.72
2023-04-17T03:03:03.008Z,102051.03
2023-04-17T03:05:32.109Z,102043.97
2023-04-17T03:08:01.892Z,102053.09
2023-04-17T03:10:30.371Z,102053.88
2023-04-17T03:12:58.825Z,102053.03
2023-04-17T03:15:27.315Z,102049.97
2023-04-17T03:17:55.539Z,102055.41
2023-04-17T03:20:23.793Z,102052.34
2023-04-17T03:22:51.932Z,102053.28
2023-04-17T03:25:21.620Z,102054.50
2023-04-17T03:27:49.753Z,102048.72
2023-04-17T03:30:17.940Z,102046.31
2023-04-17T03:32:46.094Z,102048.50
2023-04-17T03:35:14.273Z,102041.38
2023-04-17T03:37:42.432Z,102048.19
2023-04-17T03:40:11.609Z,102052.66
2023-04-17T03:42:41.142Z,102046.44
2023-04-17T03:45:11.248Z,102052.81
2023-04-17T03:47:39.441Z,102050.91
2023-04-17T03:50:09.217Z,102051.84
2023-04-17T03:52:37.399Z,102055.19
2023-04-17T03:55:07.284Z,102051.00
2023-04-17T03:57:35.420Z,102058.84
2023-04-17T04:00:10.451Z,102056.75
2023-04-17T04:02:38.852Z,102061.19
2023-04-17T04:05:08.661Z,102059.03
2023-04-17T04:07:36.869Z,102061.53
2023-04-17T04:10:05.806Z,102057.88
2023-04-17T04:12:33.955Z,102058.72
2023-04-17T04:15:02.249Z,102064.94
2023-04-17T04:17:31.790Z,102068.91
2023-04-17T04:19:59.920Z,102067.66
2023-04-17T04:22:29.208Z,102056.75
2023-04-17T04:24:57.618Z,102068.63
2023-04-17T04:27:27.697Z,102068.38
2023-04-17T04:29:58.803Z,102067.03
2023-04-17T04:32:27.786Z,102069.88
2023-04-17T04:34:58.618Z,102077.31
2023-04-17T04:37:29.975Z,102078.31
2023-04-17T04:40:09.913Z,102076.81
2023-04-17T04:42:39.720Z,102081.91
2023-04-17T04:45:09.800Z,102081.72
2023-04-17T04:47:38.009Z,102083.97
2023-04-17T04:50:09.299Z,102081.59
2023-04-17T04:52:37.495Z,102081.66
2023-04-17T04:55:06.877Z,102088.47
2023-04-17T04:57:35.016Z,102093.19
2023-04-17T05:00:03.316Z,102087.25
2023-04-17T05:02:31.703Z,102085.97
2023-04-17T05:05:00.065Z,102090.22
2023-04-17T05:07:29.615Z,102091.25
2023-04-17T05:09:57.792Z,102091.84
2023-04-17T05:12:26.054Z,102100.25
2023-04-17T05:14:54.216Z,102095.16
2023-04-17T05:17:22.435Z,102103.47
2023-04-17T05:19:50.650Z,102100.25
2023-04-17T05:22:18.839Z,102101.75
2023-04-17T05:24:48.368Z,102099.94
2023-04-17T05:27:16.814Z,102104.38
2023-04-17T05:29:44.974Z,102103.88
2023-04-17T05:32:13.159Z,102112.56
2023-04-17T05:34:41.334Z,102111.13
2023-04-17T05:37:09.635Z,102118.34
2023-04-17T05:39:38.028Z,102115.94
2023-04-17T05:42:07.619Z,102119.38
2023-04-17T05:44:35.778Z,102112.19
2023-04-17T05:47:03.948Z,102121.72
2023-04-17T05:49:32.087Z,102118.31
2023-04-17T05:52:00.481Z,102122.34
2023-04-17T05:54:30.336Z,102117.50
2023-04-17T05:56:58.574Z,102118.50
2023-04-17T05:59:28.310Z,102117.50
2023-04-17T06:01:56.595Z,102122.03
2023-04-17T06:04:25.075Z,102123.84
2023-04-17T06:06:53.377Z,102123.38
2023-04-17T06:09:21.849Z,102123.25
2023-04-17T06:11:50.848Z,102122.16
2023-04-17T06:14:20.771Z,102117.72
2023-04-17T06:16:50.337Z,102131.28
2023-04-17T06:19:18.478Z,102127.31
2023-04-17T06:21:46.866Z,102133.94
2023-04-17T06:24:15.312Z,102136.25
2023-04-17T06:26:43.489Z,102131.34
2023-04-17T06:29:12.675Z,102137.38
2023-04-17T06:31:41.181Z,102136.03
2023-04-17T06:34:11.231Z,102134.50
2023-04-17T06:36:39.498Z,102141.97
2023-04-17T06:39:07.720Z,102137.84
2023-04-17T06:41:35.883Z,102149.22
2023-04-17T06:44:04.081Z,102146.56
2023-04-17T06:46:33.444Z,102143.41
2023-04-17T06:49:03.225Z,102162.63
2023-04-17T06:51:33.675Z,102161.34
2023-04-17T06:54:02.563Z,102164.75
2023-04-17T06:56:31.316Z,102163.88
2023-04-17T06:59:01.832Z,102163.25
2023-04-17T07:01:31.755Z,102164.06
2023-04-17T07:04:00.740Z,102163.41
2023-04-17T07:06:31.617Z,102162.81
2023-04-17T07:09:01.915Z,102167.72
2023-04-17T07:11:30.952Z,102171.81
2023-04-17T07:14:00.389Z,102182.31
2023-04-17T07:16:31.157Z,102180.28
2023-04-17T07:18:59.891Z,102174.72
2023-04-17T07:21:29.569Z,102184.28
2023-04-17T07:23:59.233Z,102180.97
2023-04-17T07:26:29.484Z,102185.66
2023-04-17T07:28:57.808Z,102179.91
2023-04-17T07:31:28.630Z,102185.88
2023-04-17T07:33:57.267Z,102192.94
2023-04-17T07:36:28.029Z,102191.78
2023-04-17T07:38:56.824Z,102193.13
2023-04-17T07:41:25.175Z,102192.41
2023-04-17T07:43:57.773Z,102193.31
2023-04-17T07:46:28.781Z,102206.56
2023-04-17T07:48:57.972Z,102199.72
2023-04-17T07:51:27.864Z,102201.81
2023-04-17T07:53:57.499Z,102205.91
2023-04-17T07:56:28.260Z,102210.56
2023-04-17T07:58:58.553Z,102207.03
2023-04-17T08:01:27.783Z,102207.00
2023-04-17T08:03:57.319Z,102207.13
2023-04-17T08:06:26.649Z,102206.06
2023-04-17T08:08:56.380Z,102208.47
2023-04-17T08:11:25.456Z,102208.25
2023-04-17T08:13:54.578Z,102214.44
2023-04-17T08:16:24.419Z,102224.03
2023-04-17T08:18:52.941Z,102226.13
2023-04-17T08:21:21.536Z,102220.44
2023-04-17T08:23:50.912Z,102222.56
2023-04-17T08:26:20.642Z,102229.06
2023-04-17T08:28:49.340Z,102219.41
2023-04-17T08:31:18.212Z,102218.47
2023-04-17T08:33:49.036Z,102225.72
2023-04-17T08:36:17.476Z,102222.31
2023-04-17T08:38:47.751Z,102231.22
2023-04-17T08:41:25.332Z,102225.94
2023-04-17T08:43:57.317Z,102225.19
2023-04-17T08:46:26.898Z,102228.78
2023-04-17T08:48:57.582Z,102233.53
2023-04-17T08:51:28.301Z,102231.41
2023-04-17T08:53:57.058Z,102235.91
2023-04-17T08:56:28.091Z,102227.66
2023-04-17T08:58:57.575Z,102222.91
2023-04-17T09:01:26.538Z,102232.75
2023-04-17T09:03:57.232Z,102228.53
2023-04-17T09:06:25.714Z,102232.94
2023-04-17T09:08:59.589Z,102226.38
2023-04-17T09:11:29.192Z,102228.78
2023-04-17T09:13:58.324Z,102234.47
2023-04-17T09:16:28.666Z,102228.84
2023-04-17T09:19:10.232Z,102232.25
2023-04-17T09:21:39.004Z,102232.84
2023-04-17T09:24:10.330Z,102235.88
2023-04-17T09:26:39.555Z,102236.34
2023-04-17T09:29:12.447Z,102235.75
2023-04-17T09:31:45.390Z,102231.50
2023-04-17T09:34:17.934Z,102240.28
2023-04-17T09:36:47.994Z,102232.03
2023-04-17T09:39:24.078Z,102246.16
2023-04-17T09:42:03.443Z,102241.91
2023-04-17T09:44:37.139Z,102247.91
2023-04-17T09:47:07.707Z,102246.66
2023-04-17T09:49:45.104Z,102241.63
2023-04-17T09:52:14.449Z,102249.94
2023-04-17T09:54:43.798Z,102255.72
2023-04-17T09:57:13.523Z,102245.91
2023-04-17T09:59:45.562Z,102242.13
2023-04-17T10:02:17.009Z,102242.88
2023-04-17T10:04:47.809Z,102246.72
2023-04-17T10:07:16.652Z,102240.53
2023-04-17T10:09:46.729Z,102238.66
2023-04-17T10:12:18.633Z,102241.38
2023-04-17T10:14:49.667Z,102248.00
2023-04-17T10:17:25.208Z,102231.38
2023-04-17T10:19:55.588Z,102241.09
2023-04-17T10:22:34.244Z,102237.31
2023-04-17T10:25:23.025Z,102237.03
2023-04-17T10:27:58.664Z,102236.22
2023-04-17T10:30:54.942Z,102227.31
2023-04-17T10:33:28.382Z,102219.00
2023-04-17T10:38:36.989Z,102215.16
2023-04-17T10:41:09.763Z,102218.41
2023-04-17T10:43:42.726Z,102217.38
2023-04-17T10:46:12.977Z,102216.06
2023-04-17T10:48:50.839Z,102198.47
2023-04-17T10:51:47.492Z,102203.34
2023-04-17T10:57:06.278Z,102201.78
2023-04-17T10:59:37.977Z,102197.41
2023-04-17T11:02:07.993Z,102182.50
2023-04-17T11:04:36.895Z,102187.72
2023-04-17T11:07:09.857Z,102187.13
2023-04-17T11:09:38.873Z,102180.59
2023-04-17T11:12:07.896Z,102183.91
2023-04-17T11:14:42.579Z,102182.28
2023-04-17T11:17:11.264Z,102194.53
2023-04-17T11:19:41.727Z,102201.63
2023-04-17T11:22:12.732Z,102198.19
2023-04-17T11:24:42.673Z,102201.44
2023-04-17T11:27:11.428Z,102200.63
2023-04-17T11:29:39.999Z,102196.88
2023-04-17T11:32:13.159Z,102204.16
2023-04-17T11:34:43.037Z,102187.13
2023-04-17T11:37:15.965Z,102196.69
2023-04-17T11:39:45.715Z,102194.19
2023-04-17T11:42:14.742Z,102201.63
2023-04-17T11:44:46.043Z,102200.38
2023-04-17T11:47:16.265Z,102195.13
2023-04-17T11:49:45.716Z,102179.81
2023-04-17T11:52:17.897Z,102194.13
2023-04-17T11:54:46.548Z,102206.50
2023-04-17T11:57:15.891Z,102192.00
2023-04-17T11:59:46.142Z,102211.31
2023-04-17T12:02:16.661Z,102194.66
2023-04-17T12:04:45.742Z,102209.19
2023-04-17T12:07:25.851Z,102202.72
2023-04-17T12:09:58.424Z,102199.66
2023-04-17T12:12:27.177Z,102212.81
2023-04-17T12:14:56.115Z,102214.09
2023-04-17T12:17:24.940Z,102213.69
2023-04-17T12:19:54.005Z,102205.00
2023-04-17T12:22:24.114Z,102197.75
2023-04-17T12:24:53.101Z,102197.50
2023-04-17T12:27:22.242Z,102193.88
2023-04-17T12:29:51.478Z,102193.25
2023-04-17T12:32:21.175Z,102196.50
2023-04-17T12:34:49.778Z,102191.56
2023-04-17T12:37:19.714Z,102184.06
2023-04-17T12:39:50.058Z,102190.09
2023-04-17T12:42:19.020Z,102189.53
2023-04-17T12:44:48.491Z,102182.91
2023-04-17T12:47:17.479Z,102183.31
2023-04-17T12:49:46.088Z,102177.41
2023-04-17T12:52:15.029Z,102176.59
2023-04-17T12:54:43.238Z,102172.34
2023-04-17T12:57:13.690Z,102180.59
2023-04-17T12:59:42.265Z,102177.50
2023-04-17T13:02:10.972Z,102176.22
2023-04-17T13:04:40.911Z,102167.16
2023-04-17T13:07:10.966Z,102178.84
2023-04-17T13:09:40.152Z,102172.69
2023-04-17T13:12:09.234Z,102186.47
2023-04-17T13:14:40.049Z,102173.34
2023-04-17T13:17:08.689Z,102172.22
2023-04-17T13:19:40.015Z,102174.63
2023-04-17T13:22:08.770Z,102178.06
2023-04-17T13:24:38.588Z,102171.66
2023-04-17T13:27:07.505Z,102185.84
2023-04-17T13:29:39.239Z,102180.63
2023-04-17T13:32:08.163Z,102186.19
2023-04-17T13:34:36.524Z,102182.63
2023-04-17T13:37:05.222Z,102178.28
2023-04-17T13:39:33.633Z,102176.50
2023-04-17T13:42:02.268Z,102166.81
2023-04-17T13:44:30.654Z,102166.69
2023-04-17T13:47:03.958Z,102159.06
2023-04-17T13:49:32.408Z,102164.44
2023-04-17T13:52:01.177Z,102169.56
2023-04-17T13:54:30.446Z,102165.16
2023-04-17T13:56:59.851Z,102161.81
2023-04-17T13:59:28.334Z,102151.69
2023-04-17T14:01:57.377Z,102146.59
2023-04-17T14:04:28.127Z,102132.41
2023-04-17T14:06:56.642Z,102142.66
2023-04-17T14:09:25.727Z,102141.19
2023-04-17T14:11:54.179Z,102151.41
2023-04-17T14:14:22.805Z,102126.94
2023-04-17T14:16:51.400Z,102136.34
2023-04-17T14:19:20.285Z,102145.44
2023-04-17T14:21:50.988Z,102151.03
2023-04-17T14:24:20.888Z,102144.59
2023-04-17T14:26:49.888Z,102143.03
2023-04-17T14:29:20.872Z,102127.81
2023-04-17T14:31:51.639Z,102123.41
2023-04-17T14:34:20.356Z,102132.22
2023-04-17T14:36:51.370Z,102130.81
2023-04-17T14:39:20.028Z,102134.94
2023-04-17T14:41:48.835Z,102127.38
2023-04-17T14:44:17.554Z,102131.25
2023-04-17T14:46:47.062Z,102125.22
2023-04-17T14:49:16.241Z,102121.19
2023-04-17T14:51:44.851Z,102121.66
2023-04-17T14:54:15.581Z,102119.44
2023-04-17T14:56:44.377Z,102121.16
2023-04-17T14:59:13.705Z,102119.66
2023-04-17T15:01:42.937Z,102118.09
2023-04-17T15:04:12.063Z,102120.16
2023-04-17T15:06:40.542Z,102115.47
2023-04-17T15:09:09.401Z,102113.19
2023-04-17T15:11:39.231Z,102112.72
2023-04-17T15:14:10.802Z,102119.38
2023-04-17T15:16:39.518Z,102119.38
2023-04-17T15:19:08.299Z,102113.25
2023-04-17T15:21:36.917Z,102116.97
2023-04-17T15:24:06.858Z,102114.72
2023-04-17T15:26:35.947Z,102117.09
2023-04-17T15:29:06.047Z,102106.28
2023-04-17T15:31:35.145Z,102101.13
2023-04-17T15:34:03.714Z,102104.66
2023-04-17T15:36:32.947Z,102086.72
2023-04-17T15:39:01.515Z,102101.34
2023-04-17T15:41:30.086Z,102099.88
2023-04-17T15:43:58.826Z,102099.91
2023-04-17T15:46:30.233Z,102112.34
2023-04-17T15:49:08.968Z,102102.47
2023-04-17T15:51:40.909Z,102109.72
2023-04-17T15:54:12.265Z,102103.13
2023-04-17T15:56:42.123Z,102102.94
2023-04-17T15:59:10.917Z,102102.16
2023-04-17T16:01:41.760Z,102098.44
2023-04-17T16:04:10.466Z,102101.97
2023-04-17T16:06:39.094Z,102097.06
2023-04-17T16:09:07.830Z,102103.22
2023-04-17T16:11:36.324Z,102104.84
2023-04-17T16:14:04.922Z,102100.75
2023-04-17T16:16:34.482Z,102092.13
2023-04-17T16:19:05.053Z,102095.28
2023-04-17T16:21:33.699Z,102095.47
2023-04-17T16:24:02.248Z,102093.88
2023-04-17T16:26:31.906Z,102094.78
2023-04-17T16:29:02.100Z,102093.78
2023-04-17T16:31:30.748Z,102089.78
2023-04-17T16:33:59.789Z,102087.16
2023-04-17T16:36:31.660Z,102086.09
2023-04-17T16:39:03.551Z,102082.84
2023-04-17T16:41:32.505Z,102084.69
2023-04-17T16:44:01.294Z,102082.47
2023-04-17T16:46:40.313Z,102089.50
2023-04-17T16:49:18.849Z,102084.13
2023-04-17T16:51:49.628Z,102088.09
2023-04-17T16:54:19.768Z,102085.78
2023-04-17T16:56:48.680Z,102087.91
2023-04-17T16:59:18.575Z,102078.84
2023-04-17T17:01:50.115Z,102084.84
2023-04-17T17:04:18.853Z,102080.31
2023-04-17T17:06:49.084Z,102085.06
2023-04-17T17:09:17.967Z,102077.72
2023-04-17T17:11:47.058Z,102093.19
2023-04-17T17:14:16.507Z,102083.63
2023-04-17T17:16:45.321Z,102083.22
2023-04-17T17:19:16.836Z,102080.16
2023-04-17T17:21:45.298Z,102079.75
2023-04-17T17:24:15.348Z,102083.84
2023-04-17T17:26:44.337Z,102086.88
2023-04-17T17:29:14.297Z,102082.78
2023-04-17T17:31:43.795Z,102085.66
2023-04-17T17:34:25.262Z,102092.09
2023-04-17T17:37:07.402Z,102088.41
2023-04-17T17:39:48.473Z,102089.63
2023-04-17T17:42:16.834Z,102089.06
2023-04-17T17:44:45.851Z,102090.28
2023-04-17T17:47:14.561Z,102084.28
2023-04-17T17:49:43.378Z,102083.94
2023-04-17T17:52:15.284Z,102086.75
2023-04-17T17:54:45.555Z,102087.66
2023-04-17T17:57:14.600Z,102089.22
2023-04-17T17:59:43.341Z,102090.50
2023-04-17T18:02:12.413Z,102094.53
2023-04-17T18:04:41.268Z,102081.94
2023-04-17T18:07:09.983Z,102090.50
2023-04-17T18:09:38.559Z,102095.81
2023-04-17T18:12:09.177Z,102096.41
2023-04-17T18:14:38.015Z,102093.28
2023-04-17T18:17:06.698Z,102100.38
2023-04-17T18:19:41.189Z,102090.03
2023-04-17T18:22:12.389Z,102099.66
2023-04-17T18:24:41.010Z,102099.34
2023-04-17T18:27:11.098Z,102103.69
2023-04-17T18:29:39.801Z,102101.72
2023-04-17T18:32:08.451Z,102104.88
2023-04-17T18:34:36.872Z,102096.78
2023-04-17T18:37:05.451Z,102103.13
2023-04-17T18:39:34.323Z,102107.66
2023-04-17T18:42:03.896Z,102109.59
2023-04-17T18:44:33.775Z,102102.09
2023-04-17T18:47:06.064Z,102099.97
2023-04-17T18:49:35.128Z,102106.75
2023-04-17T18:52:05.146Z,102106.13
2023-04-17T18:54:34.052Z,102105.66
2023-04-17T18:57:02.807Z,102112.91
2023-04-17T18:59:31.625Z,102112.34
2023-04-17T19:02:02.212Z,102113.03
2023-04-17T19:04:33.430Z,102107.81
2023-04-17T19:07:03.083Z,102110.25
2023-04-17T19:09:31.757Z,102111.00
2023-04-17T19:12:00.301Z,102113.19
2023-04-17T19:14:32.609Z,102113.28
2023-04-17T19:17:02.871Z,102115.84
2023-04-17T19:19:31.552Z,102108.44
2023-04-17T19:21:59.921Z,102100.56
2023-04-17T19:24:28.663Z,102122.88
2023-04-17T19:26:57.956Z,102118.38
2023-04-17T19:29:26.578Z,102118.03
2023-04-17T19:31:55.306Z,102116.69
2023-04-17T19:34:25.982Z,102114.03
2023-04-17T19:36:54.832Z,102115.25
2023-04-17T19:39:23.906Z,102121.03
2023-04-17T19:41:52.725Z,102112.19
2023-04-17T19:44:21.440Z,102112.13
2023-04-17T19:46:50.254Z,102114.47
2023-04-17T19:49:19.513Z,102112.16
2023-04-17T19:51:50.402Z,102112.75
2023-04-17T19:54:19.294Z,102114.00
2023-04-17T19:56:48.267Z,102108.75
2023-04-17T19:59:16.904Z,102116.41
2023-04-17T20:01:46.130Z,102108.22
2023-04-17T20:04:16.965Z,102111.16
2023-04-17T20:06:45.888Z,102104.75
2023-04-17T20:09:16.833Z,102107.66
2023-04-17T20:11:45.811Z,102108.38
2023-04-17T20:14:16.838Z,102108.63
2023-04-17T20:16:47.277Z,102111.78
2023-04-17T20:19:18.841Z,102108.75
2023-04-17T20:21:48.494Z,102104.13
2023-04-17T20:24:18.867Z,102106.66
2023-04-17T20:26:48.731Z,102110.53
2023-04-17T20:29:17.635Z,102109.22
2023-04-17T20:31:46.195Z,102112.81
2023-04-17T20:34:15.009Z,102106.41
2023-04-17T20:36:44.193Z,102106.88
2023-04-17T20:39:12.947Z,102105.91
2023-04-17T20:41:43.950Z,102108.22
2023-04-17T20:44:12.767Z,102105.31
2023-04-17T20:46:53.488Z,102107.50
2023-04-17T20:49:22.771Z,102103.38
2023-04-17T20:51:52.673Z,102104.50
2023-04-17T20:54:23.248Z,102108.13
2023-04-17T20:56:53.603Z,102102.59
2023-04-17T20:59:23.756Z,102108.44
2023-04-17T21:01:52.889Z,102100.75
2023-04-17T21:04:23.229Z,102105.91
2023-04-17T21:06:51.652Z,102106.06
2023-04-17T21:09:20.257Z,102105.34
2023-04-17T21:11:49.910Z,102107.25
2023-04-17T21:14:19.831Z,102104.84
2023-04-17T21:16:48.783Z,102115.25
2023-04-17T21:19:17.899Z,102106.19
2023-04-17T21:21:48.604Z,102107.97
2023-04-17T21:24:17.773Z,102109.56
2023-04-17T21:26:46.084Z,102110.03
2023-04-17T21:29:15.048Z,102110.09
2023-04-17T21:31:45.622Z,102107.53
2023-04-17T21:34:14.926Z,102116.94
2023-04-17T21:36:43.829Z,102116.84
2023-04-17T21:39:12.600Z,102118.16
2023-04-17T21:41:41.572Z,102113.56
2023-04-17T21:44:10.913Z,102110.78
2023-04-17T21:46:41.457Z,102114.72
2023-04-17T21:49:11.490Z,102116.66
2023-04-17T21:51:39.908Z,102125.22
2023-04-17T21:54:09.919Z,102124.97
2023-04-17T21:56:38.489Z,102131.88
2023-04-17T21:59:09.903Z,102122.13
2023-04-17T22:01:39.741Z,102119.00
2023-04-17T22:04:10.411Z,102126.31
2023-04-17T22:06:39.833Z,102123.75
2023-04-17T22:09:08.963Z,102118.34
2023-04-17T22:11:39.823Z,102129.22
2023-04-17T22:14:08.313Z,102125.41
2023-04-17T22:16:39.980Z,102127.47
2023-04-17T22:19:08.414Z,102125.94
2023-04-17T22:21:39.755Z,102124.69
2023-04-17T22:24:10.295Z,102137.91
2023-04-17T22:26:40.526Z,102136.16
2023-04-17T22:29:09.355Z,102136.22
2023-04-17T22:31:38.118Z,102138.06
2023-04-17T22:34:06.790Z,102140.13
2023-04-17T22:36:35.357Z,102141.53
2023-04-17T22:39:05.697Z,102137.28
2023-04-17T22:41:34.708Z,102142.84
2023-04-17T22:44:04.125Z,102138.16
2023-04-17T22:46:32.787Z,102136.03
2023-04-17T22:49:01.767Z,102135.72
2023-04-17T22:51:31.229Z,102139.16
2023-04-17T22:54:01.613Z,102144.03
2023-04-17T22:56:36.766Z,102138.13
2023-04-17T22:59:05.847Z,102139.31
2023-04-17T23:01:34.415Z,102142.38
2023-04-17T23:04:03.154Z,102137.38
2023-04-17T23:06:32.053Z,102145.91
2023-04-17T23:09:00.581Z,102142.00
2023-04-17T23:11:31.110Z,102142.59
2023-04-17T23:14:01.954Z,102142.97
2023-04-17T23:16:31.587Z,102145.25
2023-04-17T23:19:00.504Z,102137.72
2023-04-17T23:21:28.957Z,102144.66
2023-04-17T23:23:57.384Z,102144.28
2023-04-17T23:26:26.827Z,102144.06
2023-04-17T23:28:55.448Z,102139.44
2023-04-17T23:31:25.786Z,102135.41
2023-04-17T23:33:54.495Z,102138.09
2023-04-17T23:36:24.716Z,102142.72
2023-04-17T23:38:54.670Z,102147.50
2023-04-17T23:41:23.116Z,102144.16
2023-04-17T23:43:54.557Z,102148.81
2023-04-17T23:46:26.021Z,102148.94
2023-04-17T23:48:54.677Z,102136.03
2023-04-17T23:51:23.588Z,102137.53
2023-04-17T23:53:52.494Z,102143.81
2023-04-17T23:56:22.685Z,102127.19
2023-04-17T23:58:51.446Z,102138.94
